createdAt,value
2022-11-17T00:01:26.132Z,55.63
2022-11-17T00:04:17.656Z,52.70
2022-11-17T00:07:09.224Z,54.37
2022-11-17T00:10:01.115Z,58.60
2022-11-17T00:13:10.392Z,55.30
2022-11-17T00:16:02.066Z,58.03
2022-11-17T00:19:11.313Z,56.77
2022-11-17T00:22:02.909Z,60.30
2022-11-17T00:24:54.656Z,57.93
2022-11-17T00:27:46.075Z,58.52
2022-11-17T00:30:55.133Z,57.67
2022-11-17T00:34:04.522Z,57.13
2022-11-17T00:36:56.879Z,53.67
2022-11-17T00:42:38.461Z,53.40
2022-11-17T00:45:30.560Z,53.48
2022-11-17T00:48:22.493Z,53.68
2022-11-17T00:51:16.041Z,51.58
2022-11-17T00:54:08.651Z,55.53
2022-11-17T00:57:00.351Z,52.87
2022-11-17T00:59:53.483Z,53.80
2022-11-17T01:02:44.903Z,54.85
2022-11-17T01:05:37.338Z,53.00
2022-11-17T01:08:28.867Z,50.38
2022-11-17T01:11:21.612Z,52.30
2022-11-17T01:14:16.684Z,56.47
2022-11-17T01:17:08.657Z,50.70
2022-11-17T01:20:00.929Z,54.55
2022-11-17T01:22:55.009Z,55.58
2022-11-17T01:25:46.504Z,54.07
2022-11-17T01:28:38.334Z,52.47
2022-11-17T01:31:32.111Z,52.10
2022-11-17T01:34:24.352Z,51.37
2022-11-17T01:37:22.330Z,55.10
2022-11-17T01:40:15.374Z,56.83
2022-11-17T01:43:10.200Z,53.90
2022-11-17T01:46:02.731Z,56.67
2022-11-17T01:48:56.142Z,56.90
2022-11-17T01:51:50.922Z,55.10
2022-11-17T01:54:45.791Z,54.90
2022-11-17T01:57:43.605Z,49.70
2022-11-17T02:00:35.323Z,54.77
2022-11-17T02:03:28.621Z,49.73
2022-11-17T02:06:31.029Z,48.67
2022-11-17T02:09:23.812Z,51.70
2022-11-17T02:12:16.842Z,50.25
2022-11-17T02:15:09.568Z,53.83
2022-11-17T02:18:02.403Z,49.80
2022-11-17T02:21:01.856Z,51.47
2022-11-17T02:24:12.856Z,48.37
2022-11-17T02:27:42.159Z,52.43
2022-11-17T02:30:39.889Z,53.20
2022-11-17T02:33:45.165Z,52.77
2022-11-17T02:36:43.950Z,49.63
2022-11-17T02:39:39.982Z,48.50
2022-11-17T02:42:55.252Z,49.37
2022-11-17T02:45:51.817Z,48.50
2022-11-17T02:48:46.946Z,55.00
2022-11-17T02:51:39.965Z,53.33
2022-11-17T02:54:34.156Z,50.53
2022-11-17T02:57:32.938Z,50.87
2022-11-17T03:00:24.599Z,51.73
2022-11-17T03:03:31.887Z,53.83
2022-11-17T03:06:37.248Z,52.70
2022-11-17T03:09:43.518Z,48.77
2022-11-17T03:12:44.597Z,52.60
2022-11-17T03:15:48.784Z,52.07
2022-11-17T03:18:51.220Z,51.63
2022-11-17T03:21:47.913Z,47.50
2022-11-17T03:24:42.224Z,50.20
2022-11-17T03:27:37.452Z,50.50
2022-11-17T03:30:37.228Z,51.27
2022-11-17T03:33:30.562Z,49.07
2022-11-17T03:36:26.463Z,53.33
2022-11-17T03:39:23.844Z,50.93
2022-11-17T03:42:20.001Z,50.60
2022-11-17T03:45:17.822Z,52.07
2022-11-17T03:48:14.490Z,51.30
2022-11-17T03:51:12.597Z,52.43
2022-11-17T03:54:04.277Z,48.47
2022-11-17T03:57:01.567Z,49.15
2022-11-17T03:59:59.426Z,50.60
2022-11-17T04:02:55.885Z,52.33
2022-11-17T04:05:47.386Z,50.23
2022-11-17T04:08:39.104Z,52.23
2022-11-17T04:11:48.643Z,52.53
2022-11-17T04:14:57.753Z,47.13
2022-11-17T04:17:49.663Z,46.13
2022-11-17T04:20:41.876Z,51.08
2022-11-17T04:23:34.048Z,48.85
2022-11-17T04:26:43.398Z,49.83
2022-11-17T04:29:35.616Z,50.30
2022-11-17T04:32:27.672Z,49.05
2022-11-17T04:35:19.005Z,50.30
2022-11-17T04:38:12.590Z,48.90
2022-11-17T04:41:26.549Z,51.23
2022-11-17T04:44:19.124Z,53.07
2022-11-17T04:47:10.561Z,47.63
2022-11-17T04:50:02.394Z,49.23
2022-11-17T04:52:53.994Z,46.50
2022-11-17T04:55:45.423Z,51.00
2022-11-17T04:58:37.062Z,49.87
2022-11-17T05:01:29.995Z,49.00
2022-11-17T05:04:36.885Z,49.63
2022-11-17T05:07:28.814Z,47.90
2022-11-17T05:10:44.818Z,47.80
2022-11-17T05:13:37.068Z,47.37
2022-11-17T05:16:47.274Z,53.27
2022-11-17T05:19:40.360Z,53.77
2022-11-17T05:22:49.461Z,54.30
2022-11-17T05:25:41.423Z,52.23
2022-11-17T05:28:35.714Z,52.98
2022-11-17T05:31:28.914Z,51.90
2022-11-17T05:34:20.900Z,51.03
2022-11-17T05:37:12.466Z,50.60
2022-11-17T05:40:04.943Z,62.23
2022-11-17T05:45:49.801Z,57.60
2022-11-17T05:48:41.619Z,54.47
2022-11-17T05:51:33.709Z,57.20
2022-11-17T05:54:27.076Z,62.27
2022-11-17T05:57:24.008Z,56.37
2022-11-17T06:00:17.308Z,55.63
2022-11-17T06:03:14.298Z,61.83
2022-11-17T06:06:06.932Z,57.33
2022-11-17T06:08:58.795Z,54.70
2022-11-17T06:11:50.247Z,57.03
2022-11-17T06:14:41.871Z,57.10
2022-11-17T06:17:38.009Z,55.60
2022-11-17T06:20:38.159Z,54.70
2022-11-17T06:23:35.033Z,53.33
2022-11-17T06:26:26.696Z,53.83
2022-11-17T06:29:20.645Z,52.43
2022-11-17T06:32:12.400Z,56.93
2022-11-17T06:35:05.969Z,56.00
2022-11-17T06:37:57.492Z,54.40
2022-11-17T06:40:49.023Z,59.80
2022-11-17T06:43:40.239Z,53.87
2022-11-17T06:46:38.114Z,59.07
2022-11-17T06:49:30.315Z,52.60
2022-11-17T06:52:23.245Z,55.38
2022-11-17T06:55:14.520Z,57.93
2022-11-17T06:58:07.759Z,55.37
2022-11-17T07:01:05.010Z,53.40
2022-11-17T07:03:56.767Z,57.43
2022-11-17T07:06:48.169Z,58.30
2022-11-17T07:09:39.464Z,51.67
2022-11-17T07:12:31.254Z,61.13
2022-11-17T07:15:23.476Z,54.17
2022-11-17T07:21:22.957Z,55.07
2022-11-17T07:24:15.782Z,54.57
2022-11-17T07:27:07.500Z,52.30
2022-11-17T07:29:59.329Z,60.17
2022-11-17T07:32:54.664Z,52.88
2022-11-17T07:35:46.764Z,52.93
2022-11-17T07:38:40.196Z,51.80
2022-11-17T07:41:33.065Z,51.37
2022-11-17T07:44:24.948Z,55.67
2022-11-17T07:47:16.636Z,54.60
2022-11-17T07:50:09.465Z,59.53
2022-11-17T07:53:01.522Z,55.03
2022-11-17T07:55:52.980Z,60.03
2022-11-17T07:58:46.729Z,54.83
2022-11-17T08:01:38.789Z,54.27
2022-11-17T08:04:31.027Z,57.40
2022-11-17T08:07:23.234Z,57.30
2022-11-17T08:10:15.090Z,57.78
2022-11-17T08:13:07.827Z,58.17
2022-11-17T08:16:01.877Z,58.40
2022-11-17T08:18:53.611Z,58.07
2022-11-17T08:21:45.121Z,52.53
2022-11-17T08:24:39.886Z,54.90
2022-11-17T08:27:32.273Z,53.87
2022-11-17T08:30:24.388Z,54.35
2022-11-17T08:33:16.099Z,55.30
2022-11-17T08:36:09.487Z,54.33
2022-11-17T08:39:01.379Z,54.17
2022-11-17T08:41:56.385Z,51.83
2022-11-17T08:44:48.408Z,52.67
2022-11-17T08:47:40.299Z,53.48
2022-11-17T08:50:31.994Z,53.50
2022-11-17T08:53:25.149Z,54.10
2022-11-17T08:56:17.146Z,54.43
2022-11-17T08:59:09.596Z,61.02
2022-11-17T09:02:01.332Z,61.58
2022-11-17T09:04:53.702Z,71.30
2022-11-17T09:07:47.598Z,70.83
2022-11-17T09:10:41.308Z,63.78
2022-11-17T09:13:34.061Z,61.40
2022-11-17T09:16:25.641Z,55.08
2022-11-17T09:19:20.586Z,58.28
2022-11-17T09:22:11.920Z,59.87
2022-11-17T09:25:11.840Z,61.60
2022-11-17T09:28:05.132Z,62.00
2022-11-17T09:30:57.508Z,57.10
2022-11-17T09:36:39.728Z,54.13
2022-11-17T09:39:31.499Z,52.27
2022-11-17T09:42:26.011Z,51.58
2022-11-17T09:45:23.237Z,50.83
2022-11-17T09:48:40.230Z,50.33
2022-11-17T09:51:33.276Z,49.77
2022-11-17T09:54:31.318Z,45.37
2022-11-17T09:57:30.353Z,49.20
2022-11-17T10:00:24.191Z,41.23
2022-11-17T10:03:21.228Z,41.63
2022-11-17T10:06:17.568Z,40.17
2022-11-17T10:09:25.578Z,41.27
2022-11-17T10:12:20.925Z,38.70
2022-11-17T10:15:26.986Z,43.27
2022-11-17T10:18:19.178Z,39.20
2022-11-17T10:21:11.680Z,39.30
2022-11-17T10:24:04.202Z,35.57
2022-11-17T10:26:55.897Z,36.60
2022-11-17T10:29:59.711Z,33.75
2022-11-17T10:32:53.115Z,33.43
2022-11-17T10:36:02.336Z,32.57
2022-11-17T10:39:02.707Z,31.60
2022-11-17T10:48:36.960Z,34.97
2022-11-17T10:51:32.116Z,30.07
2022-11-17T10:54:35.422Z,29.13
2022-11-17T10:57:34.729Z,30.37
2022-11-17T11:00:37.041Z,30.90
2022-11-17T11:03:40.665Z,30.20
2022-11-17T11:06:48.231Z,32.57
2022-11-17T11:10:05.493Z,31.30
2022-11-17T11:13:39.901Z,28.57
2022-11-17T11:16:41.404Z,28.10
2022-11-17T11:19:37.393Z,30.10
2022-11-17T11:22:38.137Z,36.73
2022-11-17T11:25:36.110Z,32.53
2022-11-17T11:28:47.938Z,34.07
2022-11-17T11:31:56.574Z,31.07
2022-11-17T11:35:17.180Z,28.73
2022-11-17T11:38:32.259Z,32.13
2022-11-17T11:41:58.241Z,34.57
2022-11-17T11:45:06.508Z,35.90
2022-11-17T11:48:27.897Z,38.40
2022-11-17T11:51:25.495Z,37.87
2022-11-17T11:54:25.349Z,37.10
2022-11-17T11:57:19.433Z,35.63
2022-11-17T12:00:23.356Z,41.70
2022-11-17T12:03:26.433Z,39.33
2022-11-17T12:06:43.954Z,37.27
2022-11-17T12:10:05.966Z,37.20
2022-11-17T12:12:58.668Z,35.90
2022-11-17T12:16:20.872Z,34.67
2022-11-17T12:19:55.462Z,32.07
2022-11-17T12:23:16.396Z,29.57
2022-11-17T12:26:08.767Z,28.37
2022-11-17T12:29:30.902Z,29.52
2022-11-17T12:32:54.810Z,31.70
2022-11-17T12:35:46.669Z,30.50
2022-11-17T12:38:45.346Z,31.20
2022-11-17T12:42:07.594Z,30.27
2022-11-17T12:45:08.814Z,35.40
2022-11-17T12:48:26.725Z,31.80
2022-11-17T12:51:18.225Z,35.20
2022-11-17T12:54:23.637Z,33.40
2022-11-17T12:57:19.733Z,34.53
2022-11-17T13:00:20.536Z,36.03
2022-11-17T13:03:17.683Z,32.70
2022-11-17T13:09:30.778Z,28.23
2022-11-17T13:12:27.562Z,28.07
2022-11-17T13:15:25.533Z,26.67
2022-11-17T13:18:29.315Z,28.10
2022-11-17T13:21:32.677Z,26.87
2022-11-17T13:24:34.217Z,27.93
2022-11-17T13:27:29.295Z,25.05
2022-11-17T13:30:25.457Z,24.57
2022-11-17T13:33:23.910Z,26.73
2022-11-17T13:36:25.070Z,24.10
2022-11-17T13:39:33.932Z,21.70
2022-11-17T13:42:31.558Z,21.07
2022-11-17T13:45:25.519Z,22.97
2022-11-17T13:48:35.182Z,19.77
2022-11-17T13:51:36.046Z,17.07
2022-11-17T13:54:28.857Z,18.77
2022-11-17T13:57:28.215Z,19.47
2022-11-17T14:00:22.502Z,18.23
2022-11-17T14:03:54.691Z,17.07
2022-11-17T14:07:01.864Z,17.70
2022-11-17T14:10:14.538Z,17.17
2022-11-17T14:13:38.480Z,19.10
2022-11-17T14:16:35.696Z,19.57
2022-11-17T14:19:40.452Z,20.77
2022-11-17T14:22:32.170Z,21.37
2022-11-17T14:25:23.783Z,21.17
2022-11-17T14:28:18.056Z,22.05
2022-11-17T14:31:14.777Z,23.00
2022-11-17T14:34:06.464Z,25.00
2022-11-17T14:36:58.908Z,22.93
2022-11-17T14:40:04.433Z,22.82
2022-11-17T14:42:56.179Z,22.83
2022-11-17T14:45:48.389Z,25.55
2022-11-17T14:48:39.765Z,25.00
2022-11-17T14:51:34.233Z,27.00
2022-11-17T14:54:25.902Z,30.37
2022-11-17T14:57:17.401Z,29.37
2022-11-17T15:00:17.276Z,32.70
2022-11-17T15:03:11.796Z,33.40
2022-11-17T15:06:05.205Z,33.20
2022-11-17T15:09:03.102Z,34.87
2022-11-17T15:11:55.044Z,32.23
2022-11-17T15:17:37.452Z,25.23
2022-11-17T15:20:29.862Z,22.60
2022-11-17T15:23:21.590Z,22.30
2022-11-17T15:26:15.812Z,23.50
2022-11-17T15:29:07.911Z,21.10
2022-11-17T15:31:59.575Z,24.05
2022-11-17T15:34:51.242Z,23.10
2022-11-17T15:37:42.550Z,30.70
2022-11-17T15:40:34.177Z,28.85
2022-11-17T15:43:29.349Z,32.43
2022-11-17T15:46:21.886Z,28.33
2022-11-17T15:49:13.769Z,25.00
2022-11-17T15:52:09.108Z,27.23
2022-11-17T15:55:00.975Z,32.63
2022-11-17T15:57:57.453Z,38.63
2022-11-17T16:00:49.413Z,35.53
2022-11-17T16:03:41.810Z,34.33
2022-11-17T16:06:35.112Z,30.97
2022-11-17T16:09:27.100Z,33.73
2022-11-17T16:12:18.873Z,33.98
2022-11-17T16:15:12.474Z,34.73
2022-11-17T16:18:04.610Z,36.37
2022-11-17T16:21:00.182Z,36.45
2022-11-17T16:23:57.191Z,32.63
2022-11-17T16:26:49.903Z,34.70
2022-11-17T16:29:41.455Z,35.70
2022-11-17T16:32:34.275Z,32.48
2022-11-17T16:35:26.600Z,36.20
2022-11-17T16:38:18.727Z,38.33
2022-11-17T16:41:10.350Z,31.80
2022-11-17T16:44:01.993Z,37.50
2022-11-17T16:46:53.957Z,37.42
2022-11-17T16:49:50.521Z,37.25
2022-11-17T16:52:43.054Z,38.77
2022-11-17T16:55:36.470Z,41.50
2022-11-17T16:58:28.078Z,52.63
2022-11-17T17:01:22.051Z,50.90
2022-11-17T17:04:14.412Z,30.70
2022-11-17T17:07:05.992Z,32.28
2022-11-17T17:09:57.725Z,27.35
2022-11-17T17:12:49.687Z,26.48
2022-11-17T17:15:41.682Z,30.30
2022-11-17T17:18:33.695Z,35.35
2022-11-17T17:21:25.471Z,35.30
2022-11-17T17:24:19.073Z,36.85
2022-11-17T17:27:10.890Z,35.13
2022-11-17T17:30:02.837Z,39.67
2022-11-17T17:32:54.377Z,32.55
2022-11-17T17:35:46.069Z,28.47
2022-11-17T17:38:38.222Z,25.47
2022-11-17T17:41:32.142Z,22.50
2022-11-17T17:44:23.850Z,22.40
2022-11-17T17:47:15.408Z,19.37
2022-11-17T17:50:08.709Z,18.80
2022-11-17T17:56:10.139Z,22.27
2022-11-17T17:59:01.914Z,20.13
2022-11-17T18:01:53.547Z,22.50
2022-11-17T18:04:45.113Z,23.05
2022-11-17T18:07:36.310Z,19.53
2022-11-17T18:10:28.993Z,22.17
2022-11-17T18:16:12.739Z,23.67
2022-11-17T18:19:06.105Z,27.37
2022-11-17T18:21:58.086Z,24.13
2022-11-17T18:24:49.592Z,27.98
2022-11-17T18:27:41.328Z,28.13
2022-11-17T18:30:32.917Z,27.33
2022-11-17T18:33:24.805Z,26.10
2022-11-17T18:36:16.041Z,26.03
2022-11-17T18:39:08.041Z,21.90
2022-11-17T18:41:59.881Z,21.77
2022-11-17T18:44:51.867Z,19.32
2022-11-17T18:47:43.217Z,19.55
2022-11-17T18:50:47.567Z,19.63
2022-11-17T18:53:46.560Z,21.83
2022-11-17T18:56:39.278Z,20.30
2022-11-17T18:59:30.822Z,23.87
2022-11-17T19:02:22.270Z,24.55
2022-11-17T19:05:14.071Z,26.55
2022-11-17T19:08:05.772Z,23.00
2022-11-17T19:10:59.803Z,21.07
2022-11-17T19:13:54.848Z,21.93
2022-11-17T19:16:46.692Z,21.87
2022-11-17T19:19:38.454Z,23.02
2022-11-17T19:22:30.136Z,21.52
2022-11-17T19:25:21.772Z,24.60
2022-11-17T19:28:15.540Z,23.65
2022-11-17T19:31:08.687Z,24.10
2022-11-17T19:34:00.955Z,23.57
2022-11-17T19:36:53.066Z,24.35
2022-11-17T19:39:44.512Z,23.65
2022-11-17T19:42:36.670Z,22.43
2022-11-17T19:45:28.195Z,23.10
2022-11-17T19:48:20.102Z,24.47
2022-11-17T19:51:22.483Z,21.35
2022-11-17T19:54:15.607Z,23.85
2022-11-17T19:57:07.481Z,20.17
2022-11-17T19:59:59.423Z,22.90
2022-11-17T20:02:50.798Z,24.77
2022-11-17T20:05:42.417Z,22.20
2022-11-17T20:08:34.655Z,20.95
2022-11-17T20:11:28.244Z,21.30
2022-11-17T20:14:20.497Z,24.97
2022-11-17T20:17:14.702Z,22.22
2022-11-17T20:20:07.759Z,21.90
2022-11-17T20:22:59.499Z,25.50
2022-11-17T20:25:51.491Z,22.67
2022-11-17T20:28:43.659Z,23.85
2022-11-17T20:31:36.960Z,22.32
2022-11-17T20:34:28.612Z,23.23
2022-11-17T20:37:20.393Z,21.15
2022-11-17T20:40:13.917Z,22.60
2022-11-17T20:43:05.244Z,21.47
2022-11-17T20:45:57.883Z,21.27
2022-11-17T20:48:50.039Z,21.90
2022-11-17T20:51:42.148Z,20.72
2022-11-17T20:54:34.283Z,22.30
2022-11-17T20:57:25.620Z,22.48
2022-11-17T21:00:18.364Z,22.30
2022-11-17T21:03:10.255Z,21.87
2022-11-17T21:06:03.353Z,22.03
2022-11-17T21:08:55.106Z,21.23
2022-11-17T21:11:58.550Z,22.03
2022-11-17T21:14:50.813Z,20.37
2022-11-17T21:17:59.970Z,20.55
2022-11-17T21:20:51.428Z,23.47
2022-11-17T21:23:44.065Z,25.17
2022-11-17T21:26:35.675Z,24.15
2022-11-17T21:29:27.065Z,24.60
2022-11-17T21:32:18.282Z,25.23
2022-11-17T21:35:11.846Z,24.17
2022-11-17T21:38:03.179Z,23.87
2022-11-17T21:40:54.562Z,22.30
2022-11-17T21:43:48.206Z,21.17
2022-11-17T21:46:39.639Z,18.37
2022-11-17T21:49:30.980Z,20.90
2022-11-17T21:52:22.219Z,20.83
2022-11-17T21:55:13.941Z,24.77
2022-11-17T21:58:05.237Z,21.97
2022-11-17T22:00:56.519Z,23.53
2022-11-17T22:03:48.468Z,21.40
2022-11-17T22:06:41.202Z,23.83
2022-11-17T22:09:32.483Z,22.80
2022-11-17T22:12:24.153Z,21.90
2022-11-17T22:15:15.835Z,24.87
2022-11-17T22:18:07.609Z,24.27
2022-11-17T22:20:59.387Z,23.80
2022-11-17T22:23:51.690Z,22.95
2022-11-17T22:26:46.029Z,22.35
2022-11-17T22:29:37.849Z,22.00
2022-11-17T22:32:29.336Z,23.00
2022-11-17T22:35:21.171Z,23.50
2022-11-17T22:38:13.333Z,22.87
2022-11-17T22:41:06.087Z,23.80
2022-11-17T22:46:48.106Z,20.30
2022-11-17T22:49:39.789Z,22.23
2022-11-17T22:52:31.253Z,28.30
2022-11-17T22:55:22.529Z,27.37
2022-11-17T22:58:16.089Z,23.77
2022-11-17T23:01:09.338Z,24.77
2022-11-17T23:04:01.510Z,24.70
2022-11-17T23:06:52.729Z,24.20
2022-11-17T23:09:44.672Z,28.93
2022-11-17T23:12:36.044Z,25.57
2022-11-17T23:15:28.816Z,28.63
2022-11-17T23:18:20.564Z,26.70
2022-11-17T23:21:14.000Z,25.30
2022-11-17T23:24:05.320Z,25.60
2022-11-17T23:26:56.496Z,25.60
2022-11-17T23:29:48.052Z,25.63
2022-11-17T23:32:39.519Z,26.40
2022-11-17T23:35:31.624Z,26.53
2022-11-17T23:38:23.468Z,28.10
2022-11-17T23:41:16.561Z,25.00
2022-11-17T23:44:08.744Z,25.53
2022-11-17T23:47:00.472Z,25.23
2022-11-17T23:49:51.838Z,25.50
2022-11-17T23:52:42.954Z,28.07
2022-11-17T23:55:34.140Z,30.47
2022-11-17T23:58:25.816Z,28.20
